Terminal Aerodrome Forecast
Issued by NWS Brownsville, TX

Home | Current Version | Previous Version | Text Only | Print | Product List | Glossary On
Versions: 1 2 3 4 5 6 7 8 9 10 11 12 13 14 15 16 17 18 19 20
000
FTUS44 KBRO 290610 AAA
TAFMFE
TAF AMD
KMFE 290610Z 2906/3006 14012KT P6SM SCT015 OVC021
     FM291300 13008KT P6SM BKN025
     FM291500 15013KT P6SM SCT025 BKN035
     FM300000 14016G21KT P6SM FEW250
     FM300400 13010KT P6SM OVC050=

USA.gov is the U.S. government's official web portal to all federal, state and local government web resources and services.